Time;durP1;ratioP1;P1;durP2;ratioP2;P2;SDS_P1;SDS_P2;PMS_P1;PMS_P2;Temp;Humidity;BMP_temperature;BMP_pressure;BME280_temperature;BME280_humidity;BME280_pressure;Samples;Min_cycle;Max_cycle;Signal;HPM_P1;HPM_P2
2022/06/02 00:01:49;;;;;;;24.55;3.38;;;11.40;99.90;;;;;;5056700;28;20166;-74
2022/06/02 00:04:38;;;;;;;19.77;2.88;;;11.30;99.90;;;;;;5057025;28;20197;-74
2022/06/02 00:07:15;;;;;;;12.07;2.97;;;11.10;99.90;;;;;;5058391;28;20170;-74
2022/06/02 00:09:49;;;;;;;7.95;2.72;;;10.90;99.90;;;;;;5056865;28;20174;-75
2022/06/02 00:12:27;;;;;;;4.35;2.40;;;10.90;99.90;;;;;;5057155;28;20202;-75
2022/06/02 00:15:02;;;;;;;8.45;2.45;;;10.90;99.90;;;;;;5057454;28;20201;-74
2022/06/02 00:18:01;;;;;;;4.00;2.10;;;10.90;99.90;;;;;;5058472;28;20193;-74
2022/06/02 00:20:34;;;;;;;6.05;2.05;;;10.90;99.90;;;;;;5057593;28;20174;-74
2022/06/02 00:23:26;;;;;;;2.00;1.80;;;10.90;99.90;;;;;;5058745;28;20171;-74
2022/06/02 00:26:20;;;;;;;5.25;1.80;;;10.80;99.90;;;;;;5056855;28;20173;-74
2022/06/02 00:28:55;;;;;;;2.55;2.05;;;10.70;99.90;;;;;;5056785;28;20166;-74
2022/06/02 00:31:36;;;;;;;4.05;2.10;;;10.60;99.90;;;;;;5058057;28;20198;-74
2022/06/02 00:34:16;;;;;;;3.72;2.00;;;10.40;99.90;;;;;;5057466;28;20240;-74
2022/06/02 00:37:11;;;;;;;2.60;1.95;;;10.30;99.90;;;;;;5057795;28;20170;-74
2022/06/02 00:39:38;;;;;;;2.67;1.90;;;10.30;99.90;;;;;;5057525;28;20163;-74
2022/06/02 00:42:06;;;;;;;4.75;2.00;;;10.40;99.90;;;;;;5056993;28;20300;-74
2022/06/02 00:44:50;;;;;;;3.40;2.20;;;10.30;99.90;;;;;;5058183;28;20190;-74
2022/06/02 00:47:33;;;;;;;14.65;2.35;;;10.20;99.90;;;;;;5058266;28;20170;-75
2022/06/02 00:50:23;;;;;;;6.65;2.80;;;9.90;99.90;;;;;;5057211;28;20166;-75
2022/06/02 00:53:03;;;;;;;11.13;2.75;;;9.80;99.90;;;;;;5057194;28;20304;-74
2022/06/02 00:58:55;;;;;;;20.92;3.42;;;9.70;99.90;;;;;;5058477;28;20253;-74
2022/06/02 01:01:30;;;;;;;19.95;3.08;;;9.60;99.90;;;;;;5056915;28;20170;-74
2022/06/02 01:03:58;;;;;;;14.73;2.88;;;9.60;99.90;;;;;;5056820;28;20201;-74
2022/06/02 01:06:55;;;;;;;7.35;2.30;;;9.50;99.90;;;;;;5056556;28;20655;-74
2022/06/02 01:09:44;;;;;;;10.57;2.67;;;9.60;99.90;;;;;;5056854;28;20250;-74
2022/06/02 01:12:17;;;;;;;5.15;2.15;;;9.60;99.90;;;;;;5056264;28;20198;-75
2022/06/02 01:15:00;;;;;;;18.77;2.63;;;9.60;99.90;;;;;;5056076;28;20190;-74
2022/06/02 01:17:47;;;;;;;6.95;2.00;;;9.60;99.90;;;;;;5055654;28;20224;-74
2022/06/02 01:20:28;;;;;;;5.57;2.33;;;9.60;99.90;;;;;;5057992;28;20526;-74
2022/06/02 01:23:23;;;;;;;5.47;1.98;;;9.40;99.90;;;;;;5056060;28;20237;-74
2022/06/02 01:26:05;;;;;;;4.78;1.80;;;9.20;99.90;;;;;;5056274;28;20166;-74
2022/06/02 01:28:46;;;;;;;2.92;1.80;;;9.20;99.90;;;;;;5056836;28;20170;-74
2022/06/02 01:31:34;;;;;;;4.88;1.70;;;9.20;99.90;;;;;;5056869;28;20194;-74
2022/06/02 01:34:27;;;;;;;1.67;1.52;;;9.20;99.90;;;;;;5056183;28;20672;-74
2022/06/02 01:36:58;;;;;;;2.38;1.95;;;9.20;99.90;;;;;;5057446;28;20190;-74
2022/06/02 01:39:48;;;;;;;2.85;1.70;;;9.20;99.90;;;;;;5054967;28;20182;-74
2022/06/02 01:42:38;;;;;;;3.08;1.73;;;9.10;99.90;;;;;;5056491;28;20190;-75
2022/06/02 01:45:15;;;;;;;3.42;1.90;;;8.90;99.90;;;;;;5055777;28;20695;-74
2022/06/02 01:47:43;;;;;;;4.70;2.05;;;8.90;99.90;;;;;;5057019;28;20527;-75
2022/06/02 01:50:33;;;;;;;5.32;2.20;;;8.80;99.90;;;;;;5056201;28;20189;-75
2022/06/02 01:53:23;;;;;;;3.75;1.85;;;8.80;99.90;;;;;;5056311;28;20244;-75
2022/06/02 01:56:07;;;;;;;1.95;1.70;;;8.80;99.90;;;;;;5056045;28;20617;-75
2022/06/02 01:59:07;;;;;;;1.90;1.80;;;8.90;99.90;;;;;;5056457;28;20166;-75
2022/06/02 02:01:41;;;;;;;1.70;1.60;;;8.90;99.90;;;;;;5055348;28;20216;-75
2022/06/02 02:04:14;;;;;;;2.97;1.70;;;9.00;99.90;;;;;;5057318;28;20203;-74
2022/06/02 02:06:49;;;;;;;2.03;1.80;;;8.90;99.90;;;;;;5056964;28;20167;-75
2022/06/02 02:09:20;;;;;;;3.35;1.80;;;8.80;99.90;;;;;;5055742;28;20201;-75
2022/06/02 02:11:56;;;;;;;2.05;1.92;;;8.80;99.90;;;;;;5053327;28;20236;-73
2022/06/02 02:14:51;;;;;;;1.80;1.70;;;8.70;99.90;;;;;;5053527;28;20197;-73
2022/06/02 02:17:42;;;;;;;1.80;1.70;;;8.70;99.90;;;;;;5055783;28;20292;-74
2022/06/02 02:20:25;;;;;;;3.67;1.80;;;8.60;99.90;;;;;;5056489;28;20211;-75
2022/06/02 02:23:05;;;;;;;2.70;1.85;;;8.50;99.90;;;;;;5054960;28;20185;-74
2022/06/02 02:25:51;;;;;;;2.08;1.98;;;8.30;99.90;;;;;;5053437;28;20174;-74
2022/06/02 02:28:27;;;;;;;2.25;2.13;;;8.10;99.90;;;;;;5053359;28;20186;-74
2022/06/02 02:31:34;;;;;;;2.42;2.28;;;7.90;99.90;;;;;;5054102;28;20182;-74
2022/06/02 02:34:55;;;;;;;1.80;1.70;;;7.90;99.90;;;;;;5052150;28;20198;-73
